sensor_id;sensor_type;location;lat;lon;timestamp;P1;P2;P0
43393;PMS5003;62479;62.642;17.954;2022-10-13T00:00:07;0;0;
43393;PMS5003;62479;62.642;17.954;2022-10-13T00:02:45;0;0;
43393;PMS5003;62479;62.642;17.954;2022-10-13T00:05:14;1;0;
43393;PMS5003;62479;62.642;17.954;2022-10-13T00:07:44;1;0;
43393;PMS5003;62479;62.642;17.954;2022-10-13T00:10:14;0;0;
43393;PMS5003;62479;62.642;17.954;2022-10-13T00:12:43;0;0;
43393;PMS5003;62479;62.642;17.954;2022-10-13T00:15:12;0;0;
43393;PMS5003;62479;62.642;17.954;2022-10-13T00:17:41;0;0;
43393;PMS5003;62479;62.642;17.954;2022-10-13T00:20:10;1;0;
43393;PMS5003;62479;62.642;17.954;2022-10-13T00:22:40;0;0;
43393;PMS5003;62479;62.642;17.954;2022-10-13T00:25:09;0;0;
43393;PMS5003;62479;62.642;17.954;2022-10-13T00:27:38;1;1;
43393;PMS5003;62479;62.642;17.954;2022-10-13T00:30:07;0;0;
43393;PMS5003;62479;62.642;17.954;2022-10-13T00:32:36;1;1;
43393;PMS5003;62479;62.642;17.954;2022-10-13T00:35:05;0;0;
43393;PMS5003;62479;62.642;17.954;2022-10-13T00:37:34;0;0;
43393;PMS5003;62479;62.642;17.954;2022-10-13T00:40:03;1;1;
43393;PMS5003;62479;62.642;17.954;2022-10-13T00:42:31;0;0;
43393;PMS5003;62479;62.642;17.954;2022-10-13T00:45:02;0;0;
43393;PMS5003;62479;62.642;17.954;2022-10-13T00:47:35;1;1;
43393;PMS5003;62479;62.642;17.954;2022-10-13T00:50:08;0;0;
43393;PMS5003;62479;62.642;17.954;2022-10-13T00:52:39;0;0;
43393;PMS5003;62479;62.642;17.954;2022-10-13T00:55:10;0;0;
43393;PMS5003;62479;62.642;17.954;2022-10-13T00:57:40;0;0;
43393;PMS5003;62479;62.642;17.954;2022-10-13T01:00:13;0;0;
43393;PMS5003;62479;62.642;17.954;2022-10-13T01:02:41;1;1;
43393;PMS5003;62479;62.642;17.954;2022-10-13T01:05:10;1;1;
43393;PMS5003;62479;62.642;17.954;2022-10-13T01:07:39;0;0;
43393;PMS5003;62479;62.642;17.954;2022-10-13T01:10:08;1;1;
43393;PMS5003;62479;62.642;17.954;2022-10-13T01:12:39;1;1;
43393;PMS5003;62479;62.642;17.954;2022-10-13T01:15:18;0;0;
43393;PMS5003;62479;62.642;17.954;2022-10-13T01:17:56;0;0;
43393;PMS5003;62479;62.642;17.954;2022-10-13T01:20:47;1;1;
43393;PMS5003;62479;62.642;17.954;2022-10-13T01:23:28;0;0;
43393;PMS5003;62479;62.642;17.954;2022-10-13T01:27:00;0;0;
43393;PMS5003;62479;62.642;17.954;2022-10-13T01:30:07;0;0;
43393;PMS5003;62479;62.642;17.954;2022-10-13T01:32:44;0;0;
43393;PMS5003;62479;62.642;17.954;2022-10-13T01:35:22;1;1;
43393;PMS5003;62479;62.642;17.954;2022-10-13T01:38:02;1;1;
43393;PMS5003;62479;62.642;17.954;2022-10-13T01:40:38;0;0;
43393;PMS5003;62479;62.642;17.954;2022-10-13T01:43:13;0;0;
43393;PMS5003;62479;62.642;17.954;2022-10-13T01:45:48;1;0;
43393;PMS5003;62479;62.642;17.954;2022-10-13T01:48:19;1;1;
43393;PMS5003;62479;62.642;17.954;2022-10-13T01:50:55;1;1;
43393;PMS5003;62479;62.642;17.954;2022-10-13T01:53:25;0;0;
43393;PMS5003;62479;62.642;17.954;2022-10-13T01:55:57;0;0;
43393;PMS5003;62479;62.642;17.954;2022-10-13T01:58:27;0;0;
43393;PMS5003;62479;62.642;17.954;2022-10-13T02:01:04;1;0;
43393;PMS5003;62479;62.642;17.954;2022-10-13T02:03:43;1;1;
43393;PMS5003;62479;62.642;17.954;2022-10-13T02:06:20;0;0;
43393;PMS5003;62479;62.642;17.954;2022-10-13T02:08:54;0;0;
43393;PMS5003;62479;62.642;17.954;2022-10-13T02:11:29;0;0;
43393;PMS5003;62479;62.642;17.954;2022-10-13T02:14:01;0;0;
43393;PMS5003;62479;62.642;17.954;2022-10-13T02:16:34;1;1;
43393;PMS5003;62479;62.642;17.954;2022-10-13T02:19:07;1;0;
43393;PMS5003;62479;62.642;17.954;2022-10-13T02:21:38;0;0;
43393;PMS5003;62479;62.642;17.954;2022-10-13T02:24:07;0;0;
43393;PMS5003;62479;62.642;17.954;2022-10-13T02:26:38;2;2;
43393;PMS5003;62479;62.642;17.954;2022-10-13T02:29:08;1;1;
43393;PMS5003;62479;62.642;17.954;2022-10-13T02:31:39;1;1;
43393;PMS5003;62479;62.642;17.954;2022-10-13T02:34:09;0;0;
43393;PMS5003;62479;62.642;17.954;2022-10-13T02:36:40;1;1;
43393;PMS5003;62479;62.642;17.954;2022-10-13T02:39:09;0;0;
43393;PMS5003;62479;62.642;17.954;2022-10-13T02:41:37;0;0;
43393;PMS5003;62479;62.642;17.954;2022-10-13T02:44:07;1;1;
43393;PMS5003;62479;62.642;17.954;2022-10-13T02:46:35;0;0;
43393;PMS5003;62479;62.642;17.954;2022-10-13T02:49:05;1;1;
43393;PMS5003;62479;62.642;17.954;2022-10-13T02:51:33;0;0;
43393;PMS5003;62479;62.642;17.954;2022-10-13T02:54:02;1;1;
43393;PMS5003;62479;62.642;17.954;2022-10-13T02:56:31;1;1;
43393;PMS5003;62479;62.642;17.954;2022-10-13T02:59:00;0;0;
43393;PMS5003;62479;62.642;17.954;2022-10-13T03:01:29;0;0;
43393;PMS5003;62479;62.642;17.954;2022-10-13T03:03:59;1;1;
43393;PMS5003;62479;62.642;17.954;2022-10-13T03:06:28;1;1;
43393;PMS5003;62479;62.642;17.954;2022-10-13T03:08:57;0;0;
43393;PMS5003;62479;62.642;17.954;2022-10-13T03:11:25;1;1;
43393;PMS5003;62479;62.642;17.954;2022-10-13T03:13:54;2;1;
43393;PMS5003;62479;62.642;17.954;2022-10-13T03:16:23;0;0;
43393;PMS5003;62479;62.642;17.954;2022-10-13T03:18:54;0;0;
43393;PMS5003;62479;62.642;17.954;2022-10-13T03:21:22;0;0;
43393;PMS5003;62479;62.642;17.954;2022-10-13T03:23:51;0;0;
43393;PMS5003;62479;62.642;17.954;2022-10-13T03:26:20;0;0;
43393;PMS5003;62479;62.642;17.954;2022-10-13T03:28:49;1;1;
43393;PMS5003;62479;62.642;17.954;2022-10-13T03:31:19;0;0;
43393;PMS5003;62479;62.642;17.954;2022-10-13T03:33:48;1;1;
43393;PMS5003;62479;62.642;17.954;2022-10-13T03:36:17;0;0;
43393;PMS5003;62479;62.642;17.954;2022-10-13T03:38:46;1;1;
43393;PMS5003;62479;62.642;17.954;2022-10-13T03:41:16;1;1;
43393;PMS5003;62479;62.642;17.954;2022-10-13T03:43:46;1;1;
43393;PMS5003;62479;62.642;17.954;2022-10-13T03:46:15;2;1;
43393;PMS5003;62479;62.642;17.954;2022-10-13T03:48:45;0;0;
43393;PMS5003;62479;62.642;17.954;2022-10-13T03:51:17;1;1;
43393;PMS5003;62479;62.642;17.954;2022-10-13T03:53:48;1;1;
43393;PMS5003;62479;62.642;17.954;2022-10-13T03:56:19;0;0;
43393;PMS5003;62479;62.642;17.954;2022-10-13T03:58:49;0;0;
43393;PMS5003;62479;62.642;17.954;2022-10-13T04:03:25;0;0;
43393;PMS5003;62479;62.642;17.954;2022-10-13T04:05:57;1;0;
43393;PMS5003;62479;62.642;17.954;2022-10-13T04:08:28;0;0;
43393;PMS5003;62479;62.642;17.954;2022-10-13T04:10:58;0;0;
43393;PMS5003;62479;62.642;17.954;2022-10-13T04:13:27;1;1;
43393;PMS5003;62479;62.642;17.954;2022-10-13T04:16:00;2;1;
43393;PMS5003;62479;62.642;17.954;2022-10-13T04:18:31;1;1;
43393;PMS5003;62479;62.642;17.954;2022-10-13T04:21:00;1;1;
43393;PMS5003;62479;62.642;17.954;2022-10-13T04:23:29;1;1;
43393;PMS5003;62479;62.642;17.954;2022-10-13T04:25:57;1;1;
43393;PMS5003;62479;62.642;17.954;2022-10-13T04:28:27;2;1;
43393;PMS5003;62479;62.642;17.954;2022-10-13T04:30:57;0;0;
43393;PMS5003;62479;62.642;17.954;2022-10-13T04:33:26;1;0;
43393;PMS5003;62479;62.642;17.954;2022-10-13T04:35:56;1;1;
43393;PMS5003;62479;62.642;17.954;2022-10-13T04:38:25;1;1;
43393;PMS5003;62479;62.642;17.954;2022-10-13T04:40:56;1;1;
43393;PMS5003;62479;62.642;17.954;2022-10-13T04:43:25;1;1;
43393;PMS5003;62479;62.642;17.954;2022-10-13T04:45:58;1;1;
43393;PMS5003;62479;62.642;17.954;2022-10-13T04:48:28;2;2;
43393;PMS5003;62479;62.642;17.954;2022-10-13T04:50:59;1;1;
43393;PMS5003;62479;62.642;17.954;2022-10-13T04:53:29;1;1;
43393;PMS5003;62479;62.642;17.954;2022-10-13T04:55:59;1;1;
43393;PMS5003;62479;62.642;17.954;2022-10-13T07:06:47;2;2;
43393;PMS5003;62479;62.642;17.954;2022-10-13T07:09:14;2;2;
43393;PMS5003;62479;62.642;17.954;2022-10-13T07:11:43;4;4;
43393;PMS5003;62479;62.642;17.954;2022-10-13T07:14:13;2;2;
43393;PMS5003;62479;62.642;17.954;2022-10-13T07:16:46;4;3;
43393;PMS5003;62479;62.642;17.954;2022-10-13T07:19:14;2;2;
43393;PMS5003;62479;62.642;17.954;2022-10-13T07:26:24;3;3;
43393;PMS5003;62479;62.642;17.954;2022-10-13T07:28:56;2;2;
43393;PMS5003;62479;62.642;17.954;2022-10-13T07:31:27;2;2;
43393;PMS5003;62479;62.642;17.954;2022-10-13T07:33:57;3;2;
43393;PMS5003;62479;62.642;17.954;2022-10-13T07:36:28;3;3;
43393;PMS5003;62479;62.642;17.954;2022-10-13T07:39:29;3;3;
43393;PMS5003;62479;62.642;17.954;2022-10-13T07:41:57;4;4;
43393;PMS5003;62479;62.642;17.954;2022-10-13T07:44:28;1;1;
43393;PMS5003;62479;62.642;17.954;2022-10-13T07:46:57;3;3;
43393;PMS5003;62479;62.642;17.954;2022-10-13T07:49:27;2;2;
43393;PMS5003;62479;62.642;17.954;2022-10-13T07:51:56;7;5;
43393;PMS5003;62479;62.642;17.954;2022-10-13T07:54:26;2;2;
43393;PMS5003;62479;62.642;17.954;2022-10-13T08:42:31;3;3;
43393;PMS5003;62479;62.642;17.954;2022-10-13T08:45:02;5;3;
43393;PMS5003;62479;62.642;17.954;2022-10-13T08:47:34;4;4;
43393;PMS5003;62479;62.642;17.954;2022-10-13T08:50:10;2;2;
43393;PMS5003;62479;62.642;17.954;2022-10-13T08:52:44;1;1;
43393;PMS5003;62479;62.642;17.954;2022-10-13T09:00:12;4;4;
43393;PMS5003;62479;62.642;17.954;2022-10-13T09:02:42;3;3;
43393;PMS5003;62479;62.642;17.954;2022-10-13T09:05:14;2;2;
43393;PMS5003;62479;62.642;17.954;2022-10-13T09:07:52;4;4;
43393;PMS5003;62479;62.642;17.954;2022-10-13T09:10:22;4;3;
43393;PMS5003;62479;62.642;17.954;2022-10-13T09:13:12;2;2;
43393;PMS5003;62479;62.642;17.954;2022-10-13T09:15:42;5;5;
43393;PMS5003;62479;62.642;17.954;2022-10-13T09:18:11;5;4;
43393;PMS5003;62479;62.642;17.954;2022-10-13T09:20:50;3;3;
43393;PMS5003;62479;62.642;17.954;2022-10-13T09:23:35;5;4;
43393;PMS5003;62479;62.642;17.954;2022-10-13T09:26:06;4;4;
43393;PMS5003;62479;62.642;17.954;2022-10-13T09:28:43;2;2;
43393;PMS5003;62479;62.642;17.954;2022-10-13T09:31:13;5;4;
43393;PMS5003;62479;62.642;17.954;2022-10-13T09:33:44;3;3;
43393;PMS5003;62479;62.642;17.954;2022-10-13T09:36:13;5;4;
43393;PMS5003;62479;62.642;17.954;2022-10-13T09:38:44;3;3;
43393;PMS5003;62479;62.642;17.954;2022-10-13T09:41:33;4;4;
43393;PMS5003;62479;62.642;17.954;2022-10-13T09:44:07;3;3;
43393;PMS5003;62479;62.642;17.954;2022-10-13T09:46:43;3;3;
43393;PMS5003;62479;62.642;17.954;2022-10-13T09:49:31;3;3;
43393;PMS5003;62479;62.642;17.954;2022-10-13T09:52:04;3;3;
43393;PMS5003;62479;62.642;17.954;2022-10-13T09:54:35;5;5;
43393;PMS5003;62479;62.642;17.954;2022-10-13T09:57:13;2;2;
43393;PMS5003;62479;62.642;17.954;2022-10-13T09:59:48;4;4;
43393;PMS5003;62479;62.642;17.954;2022-10-13T10:03:14;4;4;
43393;PMS5003;62479;62.642;17.954;2022-10-13T10:05:47;5;4;
43393;PMS5003;62479;62.642;17.954;2022-10-13T10:08:20;4;4;
43393;PMS5003;62479;62.642;17.954;2022-10-13T10:10:54;6;6;
43393;PMS5003;62479;62.642;17.954;2022-10-13T10:13:27;5;5;
43393;PMS5003;62479;62.642;17.954;2022-10-13T10:15:57;2;2;
43393;PMS5003;62479;62.642;17.954;2022-10-13T10:18:34;3;3;
43393;PMS5003;62479;62.642;17.954;2022-10-13T10:21:11;4;4;
43393;PMS5003;62479;62.642;17.954;2022-10-13T10:23:52;3;2;
43393;PMS5003;62479;62.642;17.954;2022-10-13T10:26:28;4;4;
43393;PMS5003;62479;62.642;17.954;2022-10-13T10:29:15;4;4;
43393;PMS5003;62479;62.642;17.954;2022-10-13T10:31:54;2;2;
43393;PMS5003;62479;62.642;17.954;2022-10-13T10:34:35;4;3;
43393;PMS5003;62479;62.642;17.954;2022-10-13T10:37:13;6;4;
43393;PMS5003;62479;62.642;17.954;2022-10-13T10:39:47;5;5;
43393;PMS5003;62479;62.642;17.954;2022-10-13T10:42:24;5;4;
43393;PMS5003;62479;62.642;17.954;2022-10-13T10:45:08;4;4;
43393;PMS5003;62479;62.642;17.954;2022-10-13T10:47:50;4;4;
43393;PMS5003;62479;62.642;17.954;2022-10-13T10:50:23;3;2;
43393;PMS5003;62479;62.642;17.954;2022-10-13T10:52:54;4;4;
43393;PMS5003;62479;62.642;17.954;2022-10-13T10:55:28;4;4;
43393;PMS5003;62479;62.642;17.954;2022-10-13T10:58:05;4;4;
43393;PMS5003;62479;62.642;17.954;2022-10-13T11:00:49;5;4;
43393;PMS5003;62479;62.642;17.954;2022-10-13T11:03:25;4;3;
43393;PMS5003;62479;62.642;17.954;2022-10-13T11:06:20;5;4;
43393;PMS5003;62479;62.642;17.954;2022-10-13T11:09:02;4;4;
43393;PMS5003;62479;62.642;17.954;2022-10-13T11:11:33;2;2;
43393;PMS5003;62479;62.642;17.954;2022-10-13T11:14:36;5;5;
43393;PMS5003;62479;62.642;17.954;2022-10-13T11:17:21;5;5;
43393;PMS5003;62479;62.642;17.954;2022-10-13T11:19:55;5;5;
43393;PMS5003;62479;62.642;17.954;2022-10-13T11:22:26;5;4;
43393;PMS5003;62479;62.642;17.954;2022-10-13T11:24:58;4;4;
43393;PMS5003;62479;62.642;17.954;2022-10-13T11:27:44;5;4;
43393;PMS5003;62479;62.642;17.954;2022-10-13T11:30:45;5;4;
43393;PMS5003;62479;62.642;17.954;2022-10-13T11:33:32;5;5;
43393;PMS5003;62479;62.642;17.954;2022-10-13T11:36:37;7;6;
43393;PMS5003;62479;62.642;17.954;2022-10-13T11:39:38;5;4;
43393;PMS5003;62479;62.642;17.954;2022-10-13T11:42:30;6;5;
43393;PMS5003;62479;62.642;17.954;2022-10-13T11:45:16;4;4;
43393;PMS5003;62479;62.642;17.954;2022-10-13T11:52:39;3;3;
43393;PMS5003;62479;62.642;17.954;2022-10-13T11:55:22;4;4;
43393;PMS5003;62479;62.642;17.954;2022-10-13T11:58:06;5;4;
43393;PMS5003;62479;62.642;17.954;2022-10-13T12:00:36;8;5;
43393;PMS5003;62479;62.642;17.954;2022-10-13T12:03:17;5;5;
43393;PMS5003;62479;62.642;17.954;2022-10-13T12:05:47;3;3;
43393;PMS5003;62479;62.642;17.954;2022-10-13T12:08:19;6;6;
43393;PMS5003;62479;62.642;17.954;2022-10-13T12:10:50;6;6;
43393;PMS5003;62479;62.642;17.954;2022-10-13T12:13:21;6;5;
43393;PMS5003;62479;62.642;17.954;2022-10-13T12:15:59;21;10;
43393;PMS5003;62479;62.642;17.954;2022-10-13T12:18:30;9;6;
43393;PMS5003;62479;62.642;17.954;2022-10-13T12:21:01;4;4;
43393;PMS5003;62479;62.642;17.954;2022-10-13T12:23:32;5;5;
43393;PMS5003;62479;62.642;17.954;2022-10-13T12:26:01;6;6;
43393;PMS5003;62479;62.642;17.954;2022-10-13T12:28:30;4;4;
43393;PMS5003;62479;62.642;17.954;2022-10-13T12:31:16;4;4;
43393;PMS5003;62479;62.642;17.954;2022-10-13T12:33:50;4;4;
43393;PMS5003;62479;62.642;17.954;2022-10-13T12:36:21;5;4;
43393;PMS5003;62479;62.642;17.954;2022-10-13T12:38:54;5;4;
43393;PMS5003;62479;62.642;17.954;2022-10-13T12:41:29;5;4;
43393;PMS5003;62479;62.642;17.954;2022-10-13T12:44:00;5;5;
43393;PMS5003;62479;62.642;17.954;2022-10-13T12:46:37;5;4;
43393;PMS5003;62479;62.642;17.954;2022-10-13T12:49:10;6;5;
43393;PMS5003;62479;62.642;17.954;2022-10-13T12:58:00;7;6;
43393;PMS5003;62479;62.642;17.954;2022-10-13T13:00:30;8;6;
43393;PMS5003;62479;62.642;17.954;2022-10-13T13:03:01;6;5;
43393;PMS5003;62479;62.642;17.954;2022-10-13T13:05:34;8;7;
43393;PMS5003;62479;62.642;17.954;2022-10-13T13:08:05;6;5;
43393;PMS5003;62479;62.642;17.954;2022-10-13T13:10:53;9;9;
43393;PMS5003;62479;62.642;17.954;2022-10-13T14:17:35;7;6;
43393;PMS5003;62479;62.642;17.954;2022-10-13T14:20:04;6;6;
43393;PMS5003;62479;62.642;17.954;2022-10-13T14:22:35;6;6;
43393;PMS5003;62479;62.642;17.954;2022-10-13T14:25:05;6;6;
43393;PMS5003;62479;62.642;17.954;2022-10-13T14:27:35;5;5;
43393;PMS5003;62479;62.642;17.954;2022-10-13T14:30:05;7;5;
43393;PMS5003;62479;62.642;17.954;2022-10-13T15:13:34;6;6;
43393;PMS5003;62479;62.642;17.954;2022-10-13T15:16:03;8;7;
43393;PMS5003;62479;62.642;17.954;2022-10-13T15:18:34;9;8;
43393;PMS5003;62479;62.642;17.954;2022-10-13T15:21:02;7;7;
43393;PMS5003;62479;62.642;17.954;2022-10-13T15:23:31;5;5;
43393;PMS5003;62479;62.642;17.954;2022-10-13T15:26:00;8;7;
43393;PMS5003;62479;62.642;17.954;2022-10-13T15:57:24;7;7;
43393;PMS5003;62479;62.642;17.954;2022-10-13T15:59:53;6;6;
43393;PMS5003;62479;62.642;17.954;2022-10-13T17:18:39;9;8;
43393;PMS5003;62479;62.642;17.954;2022-10-13T17:21:09;6;5;
43393;PMS5003;62479;62.642;17.954;2022-10-13T17:23:40;7;7;
43393;PMS5003;62479;62.642;17.954;2022-10-13T17:26:10;6;6;
43393;PMS5003;62479;62.642;17.954;2022-10-13T17:28:24;5;5;
43393;PMS5003;62479;62.642;17.954;2022-10-13T17:30:56;7;6;
43393;PMS5003;62479;62.642;17.954;2022-10-13T17:56:18;6;5;
43393;PMS5003;62479;62.642;17.954;2022-10-13T17:58:49;6;6;
43393;PMS5003;62479;62.642;17.954;2022-10-13T18:01:20;7;6;
43393;PMS5003;62479;62.642;17.954;2022-10-13T18:03:50;4;4;
43393;PMS5003;62479;62.642;17.954;2022-10-13T18:06:21;8;7;
43393;PMS5003;62479;62.642;17.954;2022-10-13T19:22:38;6;6;
43393;PMS5003;62479;62.642;17.954;2022-10-13T19:25:09;6;6;
43393;PMS5003;62479;62.642;17.954;2022-10-13T19:27:39;6;6;
43393;PMS5003;62479;62.642;17.954;2022-10-13T19:30:09;6;6;
43393;PMS5003;62479;62.642;17.954;2022-10-13T19:32:39;6;6;
43393;PMS5003;62479;62.642;17.954;2022-10-13T19:35:07;6;6;
43393;PMS5003;62479;62.642;17.954;2022-10-13T19:37:36;7;7;
43393;PMS5003;62479;62.642;17.954;2022-10-13T19:55:37;10;9;
43393;PMS5003;62479;62.642;17.954;2022-10-13T19:58:08;8;8;
43393;PMS5003;62479;62.642;17.954;2022-10-13T20:00:38;9;8;
43393;PMS5003;62479;62.642;17.954;2022-10-13T20:03:07;7;7;
43393;PMS5003;62479;62.642;17.954;2022-10-13T20:05:36;8;8;
43393;PMS5003;62479;62.642;17.954;2022-10-13T20:08:07;6;6;
43393;PMS5003;62479;62.642;17.954;2022-10-13T22:05:23;8;7;
43393;PMS5003;62479;62.642;17.954;2022-10-13T22:07:53;7;7;
43393;PMS5003;62479;62.642;17.954;2022-10-13T22:10:22;7;7;
43393;PMS5003;62479;62.642;17.954;2022-10-13T22:12:53;7;7;
43393;PMS5003;62479;62.642;17.954;2022-10-13T22:15:22;6;6;
43393;PMS5003;62479;62.642;17.954;2022-10-13T22:17:50;8;8;
43393;PMS5003;62479;62.642;17.954;2022-10-13T23:32:49;7;7;
43393;PMS5003;62479;62.642;17.954;2022-10-13T23:35:18;7;7;
43393;PMS5003;62479;62.642;17.954;2022-10-13T23:37:46;7;6;
43393;PMS5003;62479;62.642;17.954;2022-10-13T23:40:15;6;6;
43393;PMS5003;62479;62.642;17.954;2022-10-13T23:42:44;5;5;
43393;PMS5003;62479;62.642;17.954;2022-10-13T23:45:13;6;6;
